Time;durP1;ratioP1;P1;durP2;ratioP2;P2;SDS_P1;SDS_P2;PMS_P1;PMS_P2;Temp;Humidity;BMP_temperature;BMP_pressure;BME280_temperature;BME280_humidity;BME280_pressure;Samples;Min_cycle;Max_cycle;Signal;HPM_P1;HPM_P2
2022/10/04 00:01:47;;;;;;;13.95;8.50;;;8.40;99.90;;;;;;5029348;28;20163;-76
2022/10/04 00:04:40;;;;;;;15.57;8.23;;;8.50;99.90;;;;;;5028912;28;20026;-76
2022/10/04 00:07:06;;;;;;;13.43;7.68;;;8.40;99.90;;;;;;5026867;28;20057;-76
2022/10/04 00:10:18;;;;;;;12.70;7.75;;;8.40;99.90;;;;;;5030887;28;20044;-76
2022/10/04 00:12:55;;;;;;;14.05;8.43;;;8.40;99.90;;;;;;4968661;28;20515;-76
2022/10/04 00:15:31;;;;;;;14.63;8.15;;;8.40;99.90;;;;;;5018842;28;20042;-75
2022/10/04 00:18:24;;;;;;;14.07;7.90;;;8.40;99.90;;;;;;5031848;28;20025;-75
2022/10/04 00:20:58;;;;;;;12.18;8.40;;;8.40;99.90;;;;;;5030473;28;20068;-76
2022/10/04 00:23:36;;;;;;;15.93;9.23;;;8.30;99.90;;;;;;5028648;28;20018;-74
2022/10/04 00:26:14;;;;;;;13.45;8.80;;;8.30;99.90;;;;;;5031751;28;20025;-76
2022/10/04 00:28:45;;;;;;;12.35;8.07;;;8.30;99.90;;;;;;5030351;28;20083;-75
2022/10/04 00:31:25;;;;;;;13.82;7.93;;;8.30;99.90;;;;;;5030596;28;20045;-75
2022/10/04 00:34:06;;;;;;;11.98;7.90;;;8.20;99.90;;;;;;5030911;28;20030;-76
2022/10/04 00:36:38;;;;;;;11.38;7.90;;;8.20;99.90;;;;;;5020948;28;20030;-75
2022/10/04 00:39:15;;;;;;;13.38;6.95;;;8.10;99.90;;;;;;5029499;28;20536;-76
2022/10/04 00:41:47;;;;;;;11.73;7.55;;;8.10;99.90;;;;;;5028403;28;20014;-76
2022/10/04 00:44:42;;;;;;;13.18;8.55;;;8.10;99.90;;;;;;5025868;28;20025;-76
2022/10/04 00:47:21;;;;;;;11.25;7.75;;;8.10;99.90;;;;;;5023780;28;20033;-76
2022/10/04 00:49:59;;;;;;;13.50;7.95;;;8.00;99.90;;;;;;5049062;28;20025;-75
2022/10/04 00:52:29;;;;;;;14.32;7.78;;;8.00;99.90;;;;;;5034700;28;20028;-74
2022/10/04 00:55:04;;;;;;;11.43;7.93;;;7.90;99.90;;;;;;5047376;28;20029;-73
2022/10/04 00:57:37;;;;;;;15.32;7.90;;;7.90;99.90;;;;;;5031584;28;20565;-73
2022/10/04 01:00:12;;;;;;;17.15;8.40;;;7.90;99.90;;;;;;5065818;22;20049;-78
2022/10/04 01:03:01;;;;;;;14.32;7.68;;;7.90;99.90;;;;;;5034549;28;20040;-79
2022/10/04 01:05:41;;;;;;;14.10;8.23;;;7.80;99.90;;;;;;5028901;28;20033;-76
2022/10/04 01:08:30;;;;;;;12.20;8.63;;;7.80;99.90;;;;;;5028063;28;20040;-78
2022/10/04 01:11:03;;;;;;;15.45;8.52;;;7.80;99.90;;;;;;5015731;28;20056;-77
2022/10/04 01:13:59;;;;;;;13.15;8.75;;;7.80;99.90;;;;;;5009976;28;20125;-75
2022/10/04 01:16:32;;;;;;;19.88;8.98;;;7.80;99.90;;;;;;5015264;28;20533;-78
2022/10/04 01:19:28;;;;;;;15.00;8.93;;;7.80;99.90;;;;;;5013071;28;20022;-76
2022/10/04 01:22:29;;;;;;;11.65;7.65;;;7.70;99.90;;;;;;5012834;28;20025;-75
2022/10/04 01:24:58;;;;;;;15.98;8.43;;;7.70;99.90;;;;;;5008992;28;20032;-75
2022/10/04 01:27:44;;;;;;;16.83;9.75;;;7.70;99.90;;;;;;5008423;28;20030;-75
2022/10/04 01:30:21;;;;;;;18.90;9.35;;;7.70;99.90;;;;;;5009006;28;20109;-75
2022/10/04 01:32:53;;;;;;;15.38;9.38;;;7.70;99.90;;;;;;5012588;28;20048;-76
2022/10/04 01:35:19;;;;;;;15.77;9.60;;;7.60;99.90;;;;;;5008892;28;20030;-76
2022/10/04 01:37:47;;;;;;;20.05;9.82;;;7.70;99.90;;;;;;5005553;28;20018;-76
2022/10/04 01:40:25;;;;;;;16.98;10.07;;;7.70;99.90;;;;;;5010799;28;20510;-76
2022/10/04 01:42:55;;;;;;;17.95;9.82;;;7.70;99.90;;;;;;5007772;28;20037;-76
2022/10/04 01:46:01;;;;;;;22.25;8.55;;;7.60;99.90;;;;;;5010701;28;20560;-75
2022/10/04 01:48:32;;;;;;;24.25;8.13;;;7.60;99.90;;;;;;5009114;28;20025;-76
2022/10/04 01:51:20;;;;;;;24.85;7.47;;;7.60;99.90;;;;;;5008774;28;20025;-76
2022/10/04 01:53:53;;;;;;;75.55;10.77;;;7.60;99.90;;;;;;5009558;28;20029;-76
2022/10/04 01:56:26;;;;;;;12.02;8.10;;;7.50;99.90;;;;;;5015349;28;20032;-76
2022/10/04 01:59:01;;;;;;;14.90;6.80;;;7.40;99.90;;;;;;5015305;28;20461;-74
2022/10/04 02:01:51;;;;;;;13.50;7.38;;;7.40;99.90;;;;;;5014445;28;20037;-76
2022/10/04 02:04:20;;;;;;;10.95;7.35;;;7.40;99.90;;;;;;5019127;28;20124;-73
2022/10/04 02:06:53;;;;;;;11.80;6.90;;;7.40;99.90;;;;;;5011372;28;20497;-77
2022/10/04 02:09:24;;;;;;;12.70;7.70;;;7.40;99.90;;;;;;5027764;28;20033;-76
2022/10/04 02:11:51;;;;;;;9.57;6.38;;;7.50;99.90;;;;;;5014387;28;20040;-76
2022/10/04 02:14:23;;;;;;;8.15;6.07;;;7.50;99.90;;;;;;5027605;28;20030;-76
2022/10/04 02:17:00;;;;;;;10.80;6.85;;;7.50;99.90;;;;;;5027610;28;20113;-76
2022/10/04 02:19:43;;;;;;;19.45;7.82;;;7.40;99.90;;;;;;5005469;28;20045;-75
2022/10/04 02:22:10;;;;;;;21.50;6.22;;;7.40;99.90;;;;;;5025199;28;20050;-75
2022/10/04 02:24:42;;;;;;;11.30;6.25;;;7.40;99.90;;;;;;5016559;28;20034;-76
2022/10/04 02:27:08;;;;;;;8.52;5.35;;;7.30;99.90;;;;;;5012051;28;20421;-75
2022/10/04 02:29:37;;;;;;;8.13;5.75;;;7.30;99.90;;;;;;5007882;28;20533;-75
2022/10/04 02:34:54;;;;;;;27.00;5.53;;;7.30;99.90;;;;;;5004582;28;20485;-77
2022/10/04 02:37:22;;;;;;;12.02;6.25;;;7.30;99.90;;;;;;5007801;28;20131;-76
2022/10/04 02:39:57;;;;;;;10.95;6.50;;;7.30;99.90;;;;;;5017753;28;20040;-76
2022/10/04 02:42:58;;;;;;;14.77;6.05;;;7.30;99.90;;;;;;5011263;28;20037;-77
2022/10/04 02:46:05;;;;;;;16.58;5.75;;;7.30;99.90;;;;;;5011219;28;20026;-77
2022/10/04 02:48:43;;;;;;;21.70;5.30;;;7.20;99.90;;;;;;5011299;28;20045;-75
2022/10/04 02:51:29;;;;;;;9.90;6.65;;;7.20;99.90;;;;;;5006112;28;20113;-76
2022/10/04 02:54:16;;;;;;;13.30;6.72;;;7.20;99.90;;;;;;5010110;28;20118;-76
2022/10/04 02:56:43;;;;;;;10.65;5.75;;;7.20;99.90;;;;;;5006344;28;20027;-76
2022/10/04 02:59:15;;;;;;;10.40;6.47;;;7.30;99.90;;;;;;5008445;28;21365;-76
2022/10/04 03:01:56;;;;;;;8.68;5.53;;;7.30;99.90;;;;;;5002425;28;20032;-76
2022/10/04 03:04:32;;;;;;;14.48;6.53;;;7.30;99.90;;;;;;5023822;28;20034;-76
2022/10/04 03:07:01;;;;;;;7.78;5.13;;;7.30;99.90;;;;;;5023501;28;20103;-76
2022/10/04 03:09:27;;;;;;;12.82;5.30;;;7.30;99.90;;;;;;5006239;28;20026;-76
2022/10/04 03:11:54;;;;;;;10.23;5.75;;;7.40;99.90;;;;;;5012670;28;20026;-76
2022/10/04 03:14:40;;;;;;;16.60;5.70;;;7.30;99.90;;;;;;5010708;28;20449;-77
2022/10/04 03:17:07;;;;;;;9.68;5.60;;;7.30;99.90;;;;;;5009857;28;20554;-76
2022/10/04 03:19:34;;;;;;;9.93;6.10;;;7.30;99.90;;;;;;5006469;28;20403;-77
2022/10/04 03:22:11;;;;;;;7.55;4.97;;;7.30;99.90;;;;;;5009828;28;20069;-77
2022/10/04 03:24:49;;;;;;;6.57;4.50;;;7.30;99.90;;;;;;5008207;28;20030;-76
2022/10/04 03:27:48;;;;;;;7.28;4.82;;;7.30;99.90;;;;;;5007347;28;20061;-77
2022/10/04 03:30:15;;;;;;;5.78;4.05;;;7.30;99.90;;;;;;4972163;28;20053;-77
2022/10/04 03:32:42;;;;;;;6.22;4.20;;;7.30;99.90;;;;;;5011675;28;20030;-75
2022/10/04 03:35:23;;;;;;;7.07;4.68;;;7.30;99.90;;;;;;5009796;28;20113;-77
2022/10/04 03:37:52;;;;;;;7.00;4.78;;;7.30;99.90;;;;;;5002460;28;20656;-74
2022/10/04 03:40:29;;;;;;;7.22;4.60;;;7.30;99.90;;;;;;5006355;28;20526;-76
2022/10/04 03:43:02;;;;;;;6.32;4.47;;;7.30;99.90;;;;;;5012914;28;20041;-75
2022/10/04 03:45:28;;;;;;;6.45;4.68;;;7.20;99.90;;;;;;5007236;28;20097;-75
2022/10/04 03:48:00;;;;;;;7.63;4.88;;;7.20;99.90;;;;;;5006567;28;20097;-75
2022/10/04 03:50:33;;;;;;;6.90;4.72;;;7.20;99.90;;;;;;4999596;28;20394;-75
2022/10/04 03:53:08;;;;;;;9.88;6.05;;;7.20;99.90;;;;;;5003711;28;20101;-74
2022/10/04 03:55:43;;;;;;;9.73;5.45;;;7.20;99.90;;;;;;5010353;28;20025;-75
2022/10/04 03:58:11;;;;;;;8.80;5.00;;;7.20;99.90;;;;;;5023037;28;20028;-74
2022/10/04 04:00:59;;;;;;;7.70;5.25;;;7.20;99.90;;;;;;5004551;28;20029;-76
2022/10/04 04:03:28;;;;;;;6.53;4.90;;;7.20;99.90;;;;;;4997819;28;20033;-75
2022/10/04 04:05:58;;;;;;;7.25;5.15;;;7.20;99.90;;;;;;5009803;28;20043;-77
2022/10/04 04:08:24;;;;;;;7.78;5.63;;;7.20;99.90;;;;;;5004505;28;20061;-77
2022/10/04 04:10:53;;;;;;;6.10;3.92;;;7.20;99.90;;;;;;5009074;28;20057;-75
2022/10/04 04:13:49;;;;;;;5.45;3.83;;;7.10;99.90;;;;;;5009566;28;20026;-75
2022/10/04 04:16:19;;;;;;;4.85;3.50;;;7.10;99.90;;;;;;5005016;28;20037;-75
2022/10/04 04:18:49;;;;;;;3.60;2.83;;;7.10;99.90;;;;;;5007991;28;20017;-75
2022/10/04 04:21:21;;;;;;;4.88;3.47;;;7.10;99.90;;;;;;5008575;28;20073;-77
2022/10/04 04:23:55;;;;;;;5.72;3.17;;;7.00;99.90;;;;;;5007526;28;20438;-79
2022/10/04 04:26:26;;;;;;;4.57;3.10;;;7.00;99.90;;;;;;5005721;28;20033;-77
2022/10/04 04:29:03;;;;;;;6.65;3.13;;;7.00;99.90;;;;;;5003981;28;20091;-77
2022/10/04 04:31:43;;;;;;;4.50;3.58;;;7.00;99.90;;;;;;5008281;28;20139;-76
2022/10/04 04:34:21;;;;;;;5.50;3.90;;;6.90;99.90;;;;;;5011256;28;20021;-77
2022/10/04 04:36:47;;;;;;;5.43;3.78;;;6.90;99.90;;;;;;5007651;28;20030;-78
2022/10/04 04:39:33;;;;;;;5.65;3.58;;;6.80;99.90;;;;;;5005852;28;20080;-73
2022/10/04 04:42:17;;;;;;;5.82;3.83;;;6.80;99.90;;;;;;5006980;28;20103;-71
2022/10/04 04:44:59;;;;;;;5.22;3.35;;;6.80;99.90;;;;;;5004427;28;20049;-72
2022/10/04 04:47:45;;;;;;;5.97;4.07;;;6.80;99.90;;;;;;5006290;28;20484;-74
2022/10/04 04:50:17;;;;;;;7.88;4.07;;;6.80;99.90;;;;;;5000119;28;20025;-71
2022/10/04 04:52:52;;;;;;;8.65;4.32;;;6.70;99.90;;;;;;5016166;28;20041;-74
2022/10/04 04:55:21;;;;;;;8.65;4.50;;;6.70;99.90;;;;;;5003685;28;20128;-76
2022/10/04 04:57:50;;;;;;;6.53;4.32;;;6.70;99.90;;;;;;5004775;28;20105;-76
2022/10/04 05:00:31;;;;;;;5.60;4.25;;;6.80;99.90;;;;;;5003617;28;20494;-75
2022/10/04 05:03:15;;;;;;;4.63;3.58;;;6.70;99.90;;;;;;5008095;28;20113;-75
2022/10/04 05:05:45;;;;;;;6.03;4.22;;;6.70;99.90;;;;;;5008420;28;20371;-75
2022/10/04 05:08:19;;;;;;;9.40;4.25;;;6.70;99.90;;;;;;5004182;28;20088;-74
2022/10/04 05:11:02;;;;;;;5.40;4.07;;;6.70;99.90;;;;;;5001884;28;20022;-74
2022/10/04 05:13:53;;;;;;;4.70;3.13;;;6.70;99.90;;;;;;5006331;28;20053;-74
2022/10/04 05:16:53;;;;;;;5.47;3.35;;;6.70;99.90;;;;;;5016966;28;20025;-73
2022/10/04 05:19:34;;;;;;;4.63;3.10;;;6.70;99.90;;;;;;5009877;28;20030;-74
2022/10/04 05:22:20;;;;;;;4.13;3.13;;;6.70;99.90;;;;;;5004597;28;20022;-74
2022/10/04 05:24:53;;;;;;;4.93;3.30;;;6.70;99.90;;;;;;5007028;28;20030;-74
2022/10/04 05:27:29;;;;;;;5.00;3.80;;;6.70;99.90;;;;;;5001473;28;20114;-74
2022/10/04 05:30:08;;;;;;;5.75;3.65;;;6.70;99.90;;;;;;5001602;28;20064;-76
2022/10/04 05:32:36;;;;;;;5.88;3.75;;;6.70;99.90;;;;;;5007100;28;20070;-74
2022/10/04 05:35:20;;;;;;;6.70;4.90;;;6.70;99.90;;;;;;5016944;28;20034;-73
2022/10/04 05:38:26;;;;;;;7.57;4.70;;;6.70;99.90;;;;;;5008510;28;20022;-74
2022/10/04 05:41:10;;;;;;;6.38;3.85;;;6.70;99.90;;;;;;5010262;28;20060;-74
2022/10/04 05:43:50;;;;;;;7.10;4.50;;;6.60;99.90;;;;;;5011846;28;20406;-74
2022/10/04 05:46:26;;;;;;;7.35;4.97;;;6.60;99.90;;;;;;5004322;28;20498;-75
2022/10/04 05:49:04;;;;;;;6.78;4.43;;;6.60;99.90;;;;;;5009850;28;20046;-75
2022/10/04 05:51:36;;;;;;;9.80;6.38;;;6.60;99.90;;;;;;5001365;28;20574;-74
2022/10/04 05:54:08;;;;;;;11.25;6.50;;;6.60;99.90;;;;;;4999328;28;20030;-73
2022/10/04 05:57:22;;;;;;;15.13;7.45;;;6.60;99.90;;;;;;5006393;28;20478;-72
2022/10/04 06:00:25;;;;;;;17.08;7.70;;;6.60;99.90;;;;;;4988540;28;20046;-73
2022/10/04 06:03:31;;;;;;;16.98;8.07;;;6.60;99.90;;;;;;5003625;28;20049;-73
2022/10/04 06:06:39;;;;;;;25.08;10.45;;;6.70;99.90;;;;;;5011446;28;20065;-73
2022/10/04 06:09:26;;;;;;;47.58;14.93;;;6.70;99.90;;;;;;5006436;28;20117;-73
2022/10/04 06:12:32;;;;;;;41.92;14.85;;;6.70;99.90;;;;;;5004570;28;20429;-73
2022/10/04 06:15:05;;;;;;;53.05;19.38;;;6.70;99.90;;;;;;5007285;28;20084;-73
2022/10/04 06:18:13;;;;;;;53.83;19.85;;;6.70;99.90;;;;;;5002790;28;20048;-75
2022/10/04 06:20:45;;;;;;;48.42;17.55;;;6.80;99.90;;;;;;5008092;28;20046;-76
2022/10/04 06:23:19;;;;;;;37.78;16.25;;;6.90;99.90;;;;;;5005237;28;20473;-75
2022/10/04 06:26:00;;;;;;;30.95;14.13;;;6.90;99.90;;;;;;5007387;28;20038;-76
2022/10/04 06:28:34;;;;;;;19.92;10.35;;;7.00;99.90;;;;;;5005251;28;20846;-75
2022/10/04 06:31:25;;;;;;;17.08;8.60;;;7.00;99.90;;;;;;5023436;28;20069;-75
2022/10/04 06:34:28;;;;;;;9.55;5.88;;;7.10;99.90;;;;;;5007308;28;20075;-74
2022/10/04 06:37:31;;;;;;;7.25;5.13;;;7.10;99.90;;;;;;5004503;28;20553;-75
2022/10/04 06:40:38;;;;;;;6.63;4.40;;;7.20;99.90;;;;;;5002805;28;20025;-74
2022/10/04 06:43:29;;;;;;;6.28;4.10;;;7.20;99.90;;;;;;5001683;28;20038;-75
2022/10/04 06:46:21;;;;;;;5.82;4.03;;;7.20;99.90;;;;;;5005009;28;20542;-74
2022/10/04 06:49:18;;;;;;;6.22;4.43;;;7.20;99.90;;;;;;4997627;28;20040;-74
2022/10/04 06:52:10;;;;;;;4.75;3.67;;;7.30;99.90;;;;;;5020567;28;20033;-74
2022/10/04 06:54:44;;;;;;;6.57;4.50;;;7.30;99.90;;;;;;4985979;28;20038;-74
2022/10/04 06:57:40;;;;;;;5.80;4.20;;;7.40;99.90;;;;;;5008713;28;20014;-74
2022/10/04 07:00:33;;;;;;;7.28;4.88;;;7.50;99.90;;;;;;5039107;22;20041;-78
2022/10/04 07:03:11;;;;;;;8.13;4.60;;;7.50;99.90;;;;;;5044561;28;20060;-77
2022/10/04 07:06:06;;;;;;;6.80;4.50;;;7.60;99.90;;;;;;5039023;28;20029;-77
2022/10/04 07:08:37;;;;;;;10.77;5.15;;;7.70;99.90;;;;;;5040616;28;20094;-77
2022/10/04 07:11:27;;;;;;;8.73;4.93;;;7.70;99.90;;;;;;5044991;28;20144;-79
2022/10/04 07:14:12;;;;;;;9.57;5.60;;;7.70;99.90;;;;;;5045141;28;20021;-78
2022/10/04 07:16:43;;;;;;;;;;;7.70;99.90;;;;;;5046764;28;20022;-77
2022/10/04 07:19:30;;;;;;;6.85;4.80;;;7.70;99.90;;;;;;5047874;28;19909;-78
2022/10/04 07:21:55;;;;;;;8.63;5.22;;;7.80;99.90;;;;;;5045952;28;20014;-78
2022/10/04 07:24:38;;;;;;;10.15;5.68;;;7.80;99.90;;;;;;5066344;28;20032;-78
2022/10/04 07:27:09;;;;;;;7.97;5.00;;;7.90;99.90;;;;;;5062100;28;20408;-77
2022/10/04 07:29:40;;;;;;;7.72;4.90;;;8.00;99.90;;;;;;5041210;28;20030;-76
2022/10/04 07:32:16;;;;;;;7.85;4.90;;;8.00;99.90;;;;;;5039568;28;20391;-76
2022/10/04 07:35:03;;;;;;;9.93;5.20;;;8.10;99.90;;;;;;5045340;28;20025;-77
2022/10/04 07:38:02;;;;;;;6.47;4.43;;;8.20;99.90;;;;;;5044676;28;20029;-76
2022/10/04 07:40:34;;;;;;;6.38;4.30;;;8.20;99.90;;;;;;5024130;28;20041;-78
2022/10/04 07:43:26;;;;;;;7.28;4.30;;;8.30;99.90;;;;;;5041218;28;20021;-78
2022/10/04 07:46:16;;;;;;;6.25;4.53;;;8.30;99.90;;;;;;5060059;28;20048;-77
2022/10/04 07:48:48;;;;;;;9.40;4.60;;;8.40;99.90;;;;;;5047643;28;20021;-77
2022/10/04 07:51:43;;;;;;;6.05;4.55;;;8.40;99.90;;;;;;5059184;28;20057;-77
2022/10/04 07:54:40;;;;;;;8.40;4.32;;;8.40;99.90;;;;;;5059622;28;20133;-78
2022/10/04 07:57:38;;;;;;;6.60;4.68;;;8.50;99.90;;;;;;5045137;28;20033;-77
2022/10/04 08:00:29;;;;;;;11.30;5.47;;;8.50;99.90;;;;;;5037897;28;20053;-76
2022/10/04 08:03:16;;;;;;;7.78;4.90;;;8.60;99.90;;;;;;5033851;28;20394;-77
2022/10/04 08:06:14;;;;;;;11.55;5.35;;;8.60;99.90;;;;;;5030952;28;20148;-76
2022/10/04 08:09:01;;;;;;;9.77;5.30;;;8.70;99.90;;;;;;5001241;28;20038;-76
2022/10/04 08:11:35;;;;;;;8.43;5.28;;;8.70;99.90;;;;;;5029718;28;20454;-76
2022/10/04 08:14:23;;;;;;;7.18;4.15;;;8.70;99.90;;;;;;5048778;28;20125;-78
2022/10/04 08:17:21;;;;;;;8.43;4.80;;;8.80;99.90;;;;;;5041215;28;20034;-78
2022/10/04 08:20:37;;;;;;;7.97;4.40;;;8.80;99.90;;;;;;5044755;28;20026;-78
2022/10/04 08:23:31;;;;;;;6.93;4.72;;;8.90;99.90;;;;;;5017785;28;20056;-76
2022/10/04 08:26:18;;;;;;;8.82;4.50;;;8.90;99.90;;;;;;5055540;28;20087;-75
2022/10/04 08:32:11;;;;;;;7.65;4.50;;;9.10;99.90;;;;;;5030567;28;20060;-77
2022/10/04 08:35:15;;;;;;;6.68;4.53;;;9.10;99.90;;;;;;5034503;28;20029;-77
2022/10/04 08:38:02;;;;;;;6.10;4.32;;;9.20;99.90;;;;;;5037480;28;20053;-76
2022/10/04 08:40:46;;;;;;;7.38;4.60;;;9.30;99.90;;;;;;5027483;28;20026;-76
2022/10/04 08:43:14;;;;;;;;;;;9.30;99.90;;;;;;5031053;28;20028;-76
2022/10/04 08:46:04;;;;;;;7.30;4.18;;;9.40;99.90;;;;;;5025769;28;20358;-76
2022/10/04 08:48:56;;;;;;;8.15;4.35;;;9.50;99.90;;;;;;5028431;28;20025;-76
2022/10/04 08:51:53;;;;;;;7.43;4.78;;;9.60;99.90;;;;;;5042845;28;20410;-76
2022/10/04 08:54:47;;;;;;;6.82;4.80;;;9.70;99.90;;;;;;5034404;28;20034;-77
2022/10/04 08:57:36;;;;;;;9.93;4.82;;;9.70;99.90;;;;;;5027594;28;20045;-77
2022/10/04 09:00:14;;;;;;;9.07;5.47;;;9.70;99.90;;;;;;5028913;28;20029;-76
2022/10/04 09:02:49;;;;;;;11.75;5.97;;;9.80;99.90;;;;;;5047384;28;20018;-76
2022/10/04 09:05:40;;;;;;;9.88;5.50;;;9.80;99.90;;;;;;5027629;28;20037;-76
2022/10/04 09:08:53;;;;;;;12.23;5.65;;;9.90;99.90;;;;;;5028889;28;20045;-76
2022/10/04 09:11:41;;;;;;;11.95;5.80;;;9.90;99.90;;;;;;5030553;28;20044;-76
2022/10/04 09:14:29;;;;;;;8.52;5.32;;;10.00;99.90;;;;;;5036534;28;20053;-75
2022/10/04 09:17:14;;;;;;;9.23;5.70;;;10.00;99.90;;;;;;5035825;28;20029;-76
2022/10/04 09:20:23;;;;;;;13.00;5.90;;;10.10;99.90;;;;;;5031847;28;20030;-76
2022/10/04 09:23:10;;;;;;;8.48;5.53;;;10.10;99.90;;;;;;5032469;28;20026;-75
2022/10/04 09:25:55;;;;;;;8.80;5.63;;;10.20;99.90;;;;;;5031803;28;20026;-76
2022/10/04 09:28:39;;;;;;;9.82;5.47;;;10.30;99.90;;;;;;5033086;28;20019;-77
2022/10/04 09:31:26;;;;;;;8.77;5.50;;;10.40;99.90;;;;;;5047970;28;20053;-76
2022/10/04 09:34:37;;;;;;;11.05;5.90;;;10.50;99.90;;;;;;4997111;28;20425;-77
2022/10/04 09:37:31;;;;;;;16.23;6.57;;;10.60;99.90;;;;;;4975591;28;20068;-76
2022/10/04 09:40:29;;;;;;;11.25;6.45;;;10.70;99.90;;;;;;5013823;28;20590;-76
2022/10/04 09:43:16;;;;;;;11.82;6.70;;;10.90;99.90;;;;;;5015273;28;20151;-77
2022/10/04 09:45:44;;;;;;;6.82;4.70;;;11.00;99.90;;;;;;5009703;28;20363;-75
2022/10/04 09:48:42;;;;;;;7.95;5.65;;;11.10;99.90;;;;;;5006875;28;20044;-76
2022/10/04 09:51:41;;;;;;;11.85;5.80;;;11.30;99.90;;;;;;5007487;28;20064;-76
2022/10/04 09:54:31;;;;;;;10.60;5.32;;;11.40;99.90;;;;;;5024879;28;20072;-77
2022/10/04 09:57:31;;;;;;;16.60;5.43;;;11.50;99.90;;;;;;5029435;28;20041;-77
2022/10/04 10:00:20;;;;;;;8.55;5.15;;;11.60;99.90;;;;;;5012914;28;20040;-76
2022/10/04 10:02:49;;;;;;;7.40;5.70;;;11.70;99.90;;;;;;5009322;28;20039;-76
2022/10/04 10:05:40;;;;;;;8.57;5.80;;;11.80;99.90;;;;;;5010303;28;20026;-77
2022/10/04 10:08:33;;;;;;;8.82;5.75;;;11.80;99.90;;;;;;4968943;28;20084;-73
2022/10/04 10:14:33;;;;;;;9.48;5.65;;;11.90;99.90;;;;;;4976759;28;20080;-77
2022/10/04 10:17:38;;;;;;;10.10;5.13;;;12.00;99.90;;;;;;5008221;28;20030;-76
2022/10/04 10:20:38;;;;;;;7.15;4.65;;;12.00;99.90;;;;;;5008767;28;20092;-77
2022/10/04 10:23:25;;;;;;;8.93;4.95;;;12.10;99.90;;;;;;5021489;28;20032;-77
2022/10/04 10:25:58;;;;;;;10.80;4.75;;;12.20;99.90;;;;;;5032760;28;20069;-77
2022/10/04 10:28:35;;;;;;;11.70;6.07;;;12.30;99.90;;;;;;5012211;28;20057;-76
2022/10/04 10:31:36;;;;;;;7.30;5.03;;;12.30;99.90;;;;;;5026498;28;20047;-77
2022/10/04 10:34:17;;;;;;;9.00;5.70;;;12.40;99.90;;;;;;4995608;28;20057;-76
2022/10/04 10:37:21;;;;;;;9.95;5.35;;;12.40;99.90;;;;;;5011169;28;20030;-77
2022/10/04 10:40:05;;;;;;;7.93;4.82;;;12.60;99.90;;;;;;5013174;28;20482;-76
2022/10/04 10:42:46;;;;;;;15.18;6.13;;;12.60;99.90;;;;;;5026580;28;20049;-77
2022/10/04 10:45:28;;;;;;;8.25;5.10;;;12.70;99.90;;;;;;5013254;28;20068;-75
2022/10/04 10:48:20;;;;;;;10.07;5.60;;;12.80;99.90;;;;;;5007673;28;20022;-78
2022/10/04 10:51:36;;;;;;;9.82;4.93;;;12.90;99.90;;;;;;4973135;28;20048;-78
2022/10/04 10:54:30;;;;;;;10.38;5.40;;;13.10;99.90;;;;;;4981130;28;20049;-76
2022/10/04 10:57:08;;;;;;;9.65;5.57;;;13.20;99.90;;;;;;5012592;28;20477;-76
2022/10/04 10:59:52;;;;;;;15.05;4.97;;;13.30;99.90;;;;;;5031765;28;20064;-76
2022/10/04 11:03:04;;;;;;;9.90;4.90;;;13.40;99.90;;;;;;5015417;28;20032;-77
2022/10/04 11:05:54;;;;;;;8.65;4.80;;;13.50;99.90;;;;;;5011748;28;20029;-77
2022/10/04 11:09:13;;;;;;;8.05;4.70;;;13.60;99.90;;;;;;5017570;28;20048;-77
2022/10/04 11:11:57;;;;;;;8.98;4.90;;;13.70;99.90;;;;;;4951049;28;20535;-76
2022/10/04 11:14:33;;;;;;;7.30;4.50;;;13.90;99.90;;;;;;5000886;28;20022;-77
2022/10/04 11:17:26;;;;;;;7.50;4.65;;;14.00;99.90;;;;;;5025728;28;20026;-77
2022/10/04 11:20:30;;;;;;;9.27;4.50;;;14.00;99.90;;;;;;5022137;28;20025;-77
2022/10/04 11:23:30;;;;;;;11.77;4.43;;;14.10;99.90;;;;;;5021138;28;20118;-75
2022/10/04 11:26:11;;;;;;;6.60;4.60;;;14.10;99.90;;;;;;5006286;28;20034;-76
2022/10/04 11:29:02;;;;;;;10.35;4.60;;;14.20;99.90;;;;;;5016512;28;20383;-77
2022/10/04 11:31:59;;;;;;;7.18;4.10;;;14.30;99.90;;;;;;5016362;28;20049;-75
2022/10/04 11:34:49;;;;;;;10.55;4.53;;;14.40;99.90;;;;;;5014455;28;20073;-77
2022/10/04 11:37:34;;;;;;;5.70;3.85;;;14.40;99.90;;;;;;5022044;28;20029;-78
2022/10/04 11:40:46;;;;;;;6.45;4.18;;;14.40;99.90;;;;;;5037960;28;20022;-77
2022/10/04 11:43:43;;;;;;;7.78;4.00;;;14.50;99.90;;;;;;5019838;28;20018;-77
2022/10/04 11:46:32;;;;;;;6.43;3.92;;;14.60;99.90;;;;;;5014209;28;20355;-77
2022/10/04 11:49:13;;;;;;;5.72;3.60;;;14.60;99.90;;;;;;5019594;28;20038;-75
2022/10/04 11:51:52;;;;;;;11.20;3.33;;;14.70;99.90;;;;;;5022791;28;20125;-77
2022/10/04 11:54:46;;;;;;;7.43;4.30;;;14.80;99.90;;;;;;5026673;28;20026;-79
2022/10/04 11:57:18;;;;;;;;;;;14.90;99.90;;;;;;5028724;28;20085;-79
2022/10/04 12:00:15;;;;;;;6.80;3.58;;;15.00;99.90;;;;;;5029926;28;20361;-77
2022/10/04 12:03:29;;;;;;;5.75;3.60;;;15.00;99.90;;;;;;5034251;28;20614;-76
2022/10/04 12:06:13;;;;;;;6.97;3.75;;;15.10;99.90;;;;;;4989680;28;20034;-76
2022/10/04 12:08:52;;;;;;;;;;;15.10;99.90;;;;;;5009959;28;20498;-75
2022/10/04 12:11:24;;;;;;;5.65;3.35;;;15.10;99.90;;;;;;5034563;28;19940;-76
2022/10/04 12:14:16;;;;;;;9.52;3.72;;;15.10;99.90;;;;;;5023400;28;20030;-78
2022/10/04 12:17:07;;;;;;;9.27;4.03;;;15.20;99.90;;;;;;5016339;28;20030;-77
2022/10/04 12:19:57;;;;;;;10.82;4.30;;;15.20;99.90;;;;;;5021826;28;20021;-77
2022/10/04 12:22:27;;;;;;;7.90;3.75;;;15.30;99.90;;;;;;5025080;28;20096;-77
2022/10/04 12:25:11;;;;;;;12.00;3.97;;;15.30;99.90;;;;;;5019220;28;20033;-77
2022/10/04 12:28:18;;;;;;;5.70;3.65;;;15.40;99.90;;;;;;5025241;28;20034;-76
2022/10/04 12:31:15;;;;;;;9.32;5.10;;;15.40;99.90;;;;;;5035199;28;20030;-75
2022/10/04 12:34:20;;;;;;;9.82;4.70;;;15.50;99.90;;;;;;5020880;28;20030;-77
2022/10/04 12:36:54;;;;;;;6.03;2.97;;;15.60;99.90;;;;;;4940009;28;20513;-77
2022/10/04 12:39:32;;;;;;;6.60;3.60;;;15.60;99.90;;;;;;5026478;28;20030;-77
2022/10/04 12:42:22;;;;;;;7.50;3.72;;;15.60;99.90;;;;;;5023588;28;20402;-77
2022/10/04 12:45:19;;;;;;;9.73;3.70;;;15.60;99.90;;;;;;5022217;28;20030;-75
2022/10/04 12:48:15;;;;;;;8.93;3.67;;;15.70;99.90;;;;;;5004675;28;20025;-76
2022/10/04 12:50:53;;;;;;;9.10;3.47;;;15.70;99.90;;;;;;5005223;28;20086;-77
2022/10/04 12:53:38;;;;;;;5.72;2.95;;;15.80;99.90;;;;;;5013188;28;20030;-76
2022/10/04 12:56:41;;;;;;;8.20;3.42;;;15.80;99.90;;;;;;5004076;28;20117;-77
2022/10/04 12:59:40;;;;;;;6.93;2.92;;;15.80;99.90;;;;;;5004362;28;20045;-74
2022/10/04 13:02:25;;;;;;;5.57;2.70;;;15.80;99.90;;;;;;5017013;28;20054;-74
2022/10/04 13:04:57;;;;;;;5.70;3.30;;;15.80;99.90;;;;;;5015448;28;20391;-75
2022/10/04 13:07:39;;;;;;;6.80;3.20;;;15.90;99.90;;;;;;5007955;28;20026;-75
2022/10/04 13:10:23;;;;;;;7.82;3.40;;;15.90;99.90;;;;;;5006567;28;20026;-76
2022/10/04 13:13:16;;;;;;;11.10;3.22;;;15.90;99.90;;;;;;5003489;28;20109;-74
2022/10/04 13:16:31;;;;;;;9.75;3.92;;;15.90;99.90;;;;;;5061545;23;20038;-76
2022/10/04 13:19:29;;;;;;;7.60;3.35;;;16.00;99.90;;;;;;4995134;28;20049;-74
2022/10/04 13:22:00;;;;;;;6.15;3.25;;;16.00;99.90;;;;;;4933036;28;20022;-73
2022/10/04 13:24:53;;;;;;;5.90;2.72;;;16.00;99.90;;;;;;5001334;28;20030;-74
2022/10/04 13:27:42;;;;;;;8.07;3.17;;;16.10;99.90;;;;;;4998143;28;20034;-75
2022/10/04 13:30:46;;;;;;;6.85;3.10;;;16.10;99.90;;;;;;4997309;28;20034;-73
2022/10/04 13:33:47;;;;;;;7.32;2.97;;;16.10;99.90;;;;;;4998619;28;20073;-75
2022/10/04 13:36:37;;;;;;;5.82;2.90;;;16.20;99.90;;;;;;5016021;28;20051;-74
2022/10/04 13:39:34;;;;;;;10.68;3.30;;;16.20;99.90;;;;;;5000272;28;20388;-74
2022/10/04 13:42:29;;;;;;;4.57;2.78;;;16.20;99.90;;;;;;5004095;28;20030;-74
2022/10/04 13:45:34;;;;;;;5.15;2.90;;;16.20;99.90;;;;;;5003367;28;20030;-74
2022/10/04 13:48:34;;;;;;;5.45;2.55;;;16.30;99.90;;;;;;5007910;28;20038;-74
2022/10/04 13:51:21;;;;;;;4.68;2.40;;;16.40;99.90;;;;;;4991872;28;20101;-75
2022/10/04 13:56:52;;;;;;;4.53;2.45;;;16.40;99.90;;;;;;5000928;28;20505;-75
2022/10/04 13:59:41;;;;;;;4.10;2.55;;;16.40;99.90;;;;;;4998022;28;20238;-75
2022/10/04 14:02:26;;;;;;;7.22;2.28;;;16.40;99.90;;;;;;4998374;28;20391;-75
2022/10/04 14:05:29;;;;;;;4.35;2.60;;;16.50;99.90;;;;;;5000079;28;20560;-75
2022/10/04 14:08:12;;;;;;;5.70;2.67;;;16.50;99.90;;;;;;5008729;28;20531;-74
2022/10/04 14:11:18;;;;;;;4.43;2.28;;;16.50;99.90;;;;;;4998855;28;20469;-75
2022/10/04 14:14:03;;;;;;;4.90;2.00;;;16.60;99.90;;;;;;5006068;28;20033;-75
2022/10/04 14:17:02;;;;;;;4.07;2.30;;;16.60;99.90;;;;;;5002194;28;20038;-75
2022/10/04 14:20:01;;;;;;;5.82;2.20;;;16.70;99.90;;;;;;5003508;28;20025;-75
2022/10/04 14:22:55;;;;;;;11.43;3.13;;;16.60;99.90;;;;;;5013727;28;20018;-75
2022/10/04 14:26:01;;;;;;;4.63;2.53;;;16.70;99.90;;;;;;5009661;28;20084;-75
2022/10/04 14:28:56;;;;;;;5.13;2.42;;;16.70;99.90;;;;;;5005911;28;20461;-75
2022/10/04 14:32:19;;;;;;;4.10;2.42;;;16.80;99.90;;;;;;4993467;28;20038;-75
2022/10/04 14:35:24;;;;;;;6.00;2.80;;;16.80;99.90;;;;;;5019436;28;20030;-75